sensor_id;sensor_type;location;lat;lon;timestamp;pressure;altitude;pressure_sealevel;temperature;humidity
79453;BME280;68899;52.116;5.404;2024-03-22T00:00:32;102145.50;;;10.37;85.67
79453;BME280;68899;52.116;5.404;2024-03-22T00:02:58;102149.84;;;10.38;86.04
79453;BME280;68899;52.116;5.404;2024-03-22T00:05:24;102136.63;;;10.39;86.01
79453;BME280;68899;52.116;5.404;2024-03-22T00:07:50;102142.72;;;10.40;86.28
79453;BME280;68899;52.116;5.404;2024-03-22T00:10:15;102139.19;;;10.41;86.28
79453;BME280;68899;52.116;5.404;2024-03-22T00:12:41;102134.84;;;10.40;86.62
79453;BME280;68899;52.116;5.404;2024-03-22T00:15:07;102132.22;;;10.40;86.43
79453;BME280;68899;52.116;5.404;2024-03-22T00:17:32;102126.03;;;10.41;86.54
79453;BME280;68899;52.116;5.404;2024-03-22T00:20:00;102113.72;;;10.41;86.72
79453;BME280;68899;52.116;5.404;2024-03-22T00:22:25;102108.47;;;10.41;86.39
79453;BME280;68899;52.116;5.404;2024-03-22T00:24:51;102104.94;;;10.42;86.67
79453;BME280;68899;52.116;5.404;2024-03-22T00:27:16;102099.69;;;10.42;86.43
79453;BME280;68899;52.116;5.404;2024-03-22T00:29:42;102097.09;;;10.41;86.71
79453;BME280;68899;52.116;5.404;2024-03-22T00:32:07;102095.44;;;10.38;86.86
79453;BME280;68899;52.116;5.404;2024-03-22T00:34:34;102090.25;;;10.37;86.88
79453;BME280;68899;52.116;5.404;2024-03-22T00:37:00;102086.75;;;10.36;87.14
79453;BME280;68899;52.116;5.404;2024-03-22T00:39:25;102078.09;;;10.34;87.01
79453;BME280;68899;52.116;5.404;2024-03-22T00:41:51;102078.94;;;10.35;86.98
79453;BME280;68899;52.116;5.404;2024-03-22T00:44:16;102071.06;;;10.35;87.00
79453;BME280;68899;52.116;5.404;2024-03-22T00:46:42;102068.41;;;10.35;87.32
79453;BME280;68899;52.116;5.404;2024-03-22T00:49:07;102051.78;;;10.34;87.25
79453;BME280;68899;52.116;5.404;2024-03-22T00:51:33;102049.16;;;10.34;87.20
79453;BME280;68899;52.116;5.404;2024-03-22T00:53:58;102043.94;;;10.33;87.39
79453;BME280;68899;52.116;5.404;2024-03-22T00:56:24;102043.03;;;10.34;87.43
79453;BME280;68899;52.116;5.404;2024-03-22T00:58:49;102040.44;;;10.32;87.48
79453;BME280;68899;52.116;5.404;2024-03-22T01:01:15;102041.31;;;10.33;87.60
79453;BME280;68899;52.116;5.404;2024-03-22T01:03:40;102038.66;;;10.33;87.65
79453;BME280;68899;52.116;5.404;2024-03-22T01:06:06;102040.41;;;10.34;87.57
79453;BME280;68899;52.116;5.404;2024-03-22T01:08:32;102042.16;;;10.33;87.66
79453;BME280;68899;52.116;5.404;2024-03-22T01:10:58;102038.63;;;10.34;87.79
79453;BME280;68899;52.116;5.404;2024-03-22T01:13:24;102040.41;;;10.34;87.97
79453;BME280;68899;52.116;5.404;2024-03-22T01:15:49;102036.03;;;10.33;88.07
79453;BME280;68899;52.116;5.404;2024-03-22T01:18:15;102034.25;;;10.33;87.81
79453;BME280;68899;52.116;5.404;2024-03-22T01:20:40;102036.00;;;10.34;87.95
79453;BME280;68899;52.116;5.404;2024-03-22T01:23:07;102036.84;;;10.35;88.08
79453;BME280;68899;52.116;5.404;2024-03-22T01:25:33;102036.91;;;10.33;87.96
79453;BME280;68899;52.116;5.404;2024-03-22T01:27:59;102034.25;;;10.33;88.25
79453;BME280;68899;52.116;5.404;2024-03-22T01:30:24;102032.63;;;10.31;88.23
79453;BME280;68899;52.116;5.404;2024-03-22T01:32:55;102027.38;;;10.31;88.12
79453;BME280;68899;52.116;5.404;2024-03-22T01:35:20;102021.25;;;10.30;88.37
79453;BME280;68899;52.116;5.404;2024-03-22T01:37:46;102027.28;;;10.32;88.37
79453;BME280;68899;52.116;5.404;2024-03-22T01:40:12;102018.47;;;10.33;88.33
79453;BME280;68899;52.116;5.404;2024-03-22T01:42:38;102022.00;;;10.34;88.40
79453;BME280;68899;52.116;5.404;2024-03-22T01:45:04;102022.78;;;10.36;88.38
79453;BME280;68899;52.116;5.404;2024-03-22T01:47:30;102018.44;;;10.35;88.65
79453;BME280;68899;52.116;5.404;2024-03-22T01:49:56;102008.72;;;10.37;88.54
79453;BME280;68899;52.116;5.404;2024-03-22T01:52:22;102006.00;;;10.38;88.75
79453;BME280;68899;52.116;5.404;2024-03-22T01:54:49;101998.91;;;10.40;88.85
79453;BME280;68899;52.116;5.404;2024-03-22T01:57:14;102000.75;;;10.38;88.88
79453;BME280;68899;52.116;5.404;2024-03-22T01:59:40;102006.06;;;10.37;88.70
79453;BME280;68899;52.116;5.404;2024-03-22T02:02:06;102009.56;;;10.37;88.69
79453;BME280;68899;52.116;5.404;2024-03-22T02:04:31;102007.78;;;10.38;88.97
79453;BME280;68899;52.116;5.404;2024-03-22T02:06:57;102009.50;;;10.39;88.78
79453;BME280;68899;52.116;5.404;2024-03-22T02:09:23;102008.63;;;10.38;88.92
79453;BME280;68899;52.116;5.404;2024-03-22T02:11:49;102010.41;;;10.38;88.89
79453;BME280;68899;52.116;5.404;2024-03-22T02:14:15;101999.81;;;10.39;88.86
79453;BME280;68899;52.116;5.404;2024-03-22T02:16:41;101996.28;;;10.40;89.07
79453;BME280;68899;52.116;5.404;2024-03-22T02:19:07;101997.09;;;10.42;88.97
79453;BME280;68899;52.116;5.404;2024-03-22T02:21:33;101996.19;;;10.42;89.04
79453;BME280;68899;52.116;5.404;2024-03-22T02:23:59;101985.66;;;10.42;88.87
79453;BME280;68899;52.116;5.404;2024-03-22T02:26:24;101990.94;;;10.42;88.81
79453;BME280;68899;52.116;5.404;2024-03-22T02:28:50;101981.28;;;10.42;88.82
79453;BME280;68899;52.116;5.404;2024-03-22T02:31:15;101976.88;;;10.43;88.80
79453;BME280;68899;52.116;5.404;2024-03-22T02:33:41;101973.34;;;10.44;88.77
79453;BME280;68899;52.116;5.404;2024-03-22T02:36:06;101969.78;;;10.45;88.30
79453;BME280;68899;52.116;5.404;2024-03-22T02:38:32;101968.94;;;10.44;89.10
79453;BME280;68899;52.116;5.404;2024-03-22T02:40:58;101974.13;;;10.46;88.55
79453;BME280;68899;52.116;5.404;2024-03-22T02:43:24;101971.56;;;10.44;88.33
79453;BME280;68899;52.116;5.404;2024-03-22T02:45:50;101969.84;;;10.43;88.24
79453;BME280;68899;52.116;5.404;2024-03-22T02:48:15;101963.66;;;10.44;88.36
79453;BME280;68899;52.116;5.404;2024-03-22T02:50:41;101955.78;;;10.44;88.20
79453;BME280;68899;52.116;5.404;2024-03-22T02:53:07;101946.22;;;10.42;88.02
79453;BME280;68899;52.116;5.404;2024-03-22T02:55:39;101947.09;;;10.42;87.91
79453;BME280;68899;52.116;5.404;2024-03-22T02:58:06;101938.31;;;10.42;87.98
79453;BME280;68899;52.116;5.404;2024-03-22T03:00:38;101933.06;;;10.42;87.93
79453;BME280;68899;52.116;5.404;2024-03-22T03:03:07;101928.69;;;10.42;87.77
79453;BME280;68899;52.116;5.404;2024-03-22T03:05:33;101920.78;;;10.42;87.58
79453;BME280;68899;52.116;5.404;2024-03-22T03:07:58;101908.53;;;10.41;87.54
79453;BME280;68899;52.116;5.404;2024-03-22T03:10:24;101902.41;;;10.41;87.65
79453;BME280;68899;52.116;5.404;2024-03-22T03:12:50;101898.88;;;10.42;87.58
79453;BME280;68899;52.116;5.404;2024-03-22T03:15:15;101896.31;;;10.40;87.54
79453;BME280;68899;52.116;5.404;2024-03-22T03:17:41;101892.91;;;10.38;87.56
79453;BME280;68899;52.116;5.404;2024-03-22T03:20:07;101889.56;;;10.35;87.29
79453;BME280;68899;52.116;5.404;2024-03-22T03:22:39;101891.44;;;10.31;87.23
79453;BME280;68899;52.116;5.404;2024-03-22T03:25:05;101895.94;;;10.29;87.01
79453;BME280;68899;52.116;5.404;2024-03-22T03:27:31;101884.63;;;10.27;87.05
79453;BME280;68899;52.116;5.404;2024-03-22T03:29:56;101882.97;;;10.25;86.89
79453;BME280;68899;52.116;5.404;2024-03-22T03:32:22;101890.81;;;10.26;87.19
79453;BME280;68899;52.116;5.404;2024-03-22T03:34:47;101881.22;;;10.25;87.04
79453;BME280;68899;52.116;5.404;2024-03-22T03:37:14;101871.56;;;10.26;87.00
79453;BME280;68899;52.116;5.404;2024-03-22T03:39:39;101863.69;;;10.24;86.82
79453;BME280;68899;52.116;5.404;2024-03-22T03:42:05;101856.75;;;10.23;86.93
79453;BME280;68899;52.116;5.404;2024-03-22T03:44:30;101860.22;;;10.24;86.78
79453;BME280;68899;52.116;5.404;2024-03-22T03:46:56;101856.75;;;10.23;86.83
79453;BME280;68899;52.116;5.404;2024-03-22T03:49:21;101853.25;;;10.23;86.94
79453;BME280;68899;52.116;5.404;2024-03-22T03:51:47;101854.16;;;10.22;86.75
79453;BME280;68899;52.116;5.404;2024-03-22T03:54:12;101853.25;;;10.23;86.81
79453;BME280;68899;52.116;5.404;2024-03-22T03:56:38;101832.25;;;10.21;86.74
79453;BME280;68899;52.116;5.404;2024-03-22T03:59:03;101845.47;;;10.19;86.64
79453;BME280;68899;52.116;5.404;2024-03-22T04:01:29;101843.78;;;10.18;86.78
79453;BME280;68899;52.116;5.404;2024-03-22T04:03:54;101838.63;;;10.15;86.55
79453;BME280;68899;52.116;5.404;2024-03-22T04:06:20;101844.88;;;10.13;86.61
79453;BME280;68899;52.116;5.404;2024-03-22T04:08:45;101840.56;;;10.12;86.44
79453;BME280;68899;52.116;5.404;2024-03-22T04:11:11;101836.16;;;10.12;86.73
79453;BME280;68899;52.116;5.404;2024-03-22T04:13:37;101835.38;;;10.10;86.62
79453;BME280;68899;52.116;5.404;2024-03-22T04:16:02;101835.44;;;10.09;86.48
79453;BME280;68899;52.116;5.404;2024-03-22T04:18:28;101838.09;;;10.07;86.43
79453;BME280;68899;52.116;5.404;2024-03-22T04:20:55;101842.50;;;10.07;86.50
79453;BME280;68899;52.116;5.404;2024-03-22T04:23:21;101835.63;;;10.04;86.46
79453;BME280;68899;52.116;5.404;2024-03-22T04:26:01;101836.47;;;10.05;86.46
79453;BME280;68899;52.116;5.404;2024-03-22T04:28:27;101828.66;;;10.03;86.28
79453;BME280;68899;52.116;5.404;2024-03-22T04:31:04;101832.16;;;10.04;86.20
79453;BME280;68899;52.116;5.404;2024-03-22T04:33:32;101836.41;;;10.06;86.38
79453;BME280;68899;52.116;5.404;2024-03-22T04:35:59;101835.69;;;10.03;86.09
79453;BME280;68899;52.116;5.404;2024-03-22T04:38:26;101830.50;;;10.01;86.11
79453;BME280;68899;52.116;5.404;2024-03-22T04:40:52;101827.88;;;10.01;86.11
79453;BME280;68899;52.116;5.404;2024-03-22T04:43:18;101831.44;;;10.00;86.09
79453;BME280;68899;52.116;5.404;2024-03-22T04:45:44;101833.31;;;9.97;86.04
79453;BME280;68899;52.116;5.404;2024-03-22T04:48:12;101833.22;;;10.00;85.92
79453;BME280;68899;52.116;5.404;2024-03-22T04:50:38;101835.03;;;9.98;85.69
79453;BME280;68899;52.116;5.404;2024-03-22T04:53:03;101835.09;;;9.96;85.74
79453;BME280;68899;52.116;5.404;2024-03-22T04:55:30;101843.00;;;9.96;85.71
79453;BME280;68899;52.116;5.404;2024-03-22T04:57:56;101830.84;;;9.94;86.04
79453;BME280;68899;52.116;5.404;2024-03-22T05:00:21;101828.22;;;9.94;85.73
79453;BME280;68899;52.116;5.404;2024-03-22T05:02:47;101843.13;;;9.93;85.83
79453;BME280;68899;52.116;5.404;2024-03-22T05:05:13;101842.28;;;9.93;85.99
79453;BME280;68899;52.116;5.404;2024-03-22T05:07:38;101836.25;;;9.90;85.95
79453;BME280;68899;52.116;5.404;2024-03-22T05:10:04;101840.63;;;9.90;86.07
79453;BME280;68899;52.116;5.404;2024-03-22T05:12:30;101837.97;;;9.90;85.86
79453;BME280;68899;52.116;5.404;2024-03-22T05:14:56;101840.56;;;9.91;85.90
79453;BME280;68899;52.116;5.404;2024-03-22T05:17:22;101824.81;;;9.91;86.07
79453;BME280;68899;52.116;5.404;2024-03-22T05:19:47;101826.44;;;9.94;86.00
79453;BME280;68899;52.116;5.404;2024-03-22T05:22:13;101826.50;;;9.93;85.99
79453;BME280;68899;52.116;5.404;2024-03-22T05:24:38;101829.25;;;9.89;86.06
79453;BME280;68899;52.116;5.404;2024-03-22T05:27:04;101837.19;;;9.88;85.88
79453;BME280;68899;52.116;5.404;2024-03-22T05:29:29;101831.94;;;9.88;85.86
79453;BME280;68899;52.116;5.404;2024-03-22T05:31:55;101817.88;;;9.89;85.84
79453;BME280;68899;52.116;5.404;2024-03-22T05:34:20;101814.47;;;9.87;85.87
79453;BME280;68899;52.116;5.404;2024-03-22T05:36:46;101813.63;;;9.86;85.88
79453;BME280;68899;52.116;5.404;2024-03-22T05:39:12;101811.00;;;9.86;85.98
79453;BME280;68899;52.116;5.404;2024-03-22T05:41:38;101810.22;;;9.84;85.72
79453;BME280;68899;52.116;5.404;2024-03-22T05:44:04;101814.63;;;9.84;85.66
79453;BME280;68899;52.116;5.404;2024-03-22T05:46:30;101813.75;;;9.83;85.86
79453;BME280;68899;52.116;5.404;2024-03-22T05:48:56;101800.72;;;9.80;86.10
79453;BME280;68899;52.116;5.404;2024-03-22T05:51:22;101802.50;;;9.80;85.71
79453;BME280;68899;52.116;5.404;2024-03-22T05:53:48;101798.19;;;9.79;85.69
79453;BME280;68899;52.116;5.404;2024-03-22T05:56:13;101797.31;;;9.78;85.46
79453;BME280;68899;52.116;5.404;2024-03-22T05:58:39;101793.78;;;9.79;85.51
79453;BME280;68899;52.116;5.404;2024-03-22T06:01:05;101792.06;;;9.78;85.90
79453;BME280;68899;52.116;5.404;2024-03-22T06:03:31;101780.69;;;9.78;85.72
79453;BME280;68899;52.116;5.404;2024-03-22T06:05:59;101785.03;;;9.79;85.57
79453;BME280;68899;52.116;5.404;2024-03-22T06:08:26;101780.56;;;9.81;85.79
79453;BME280;68899;52.116;5.404;2024-03-22T06:10:55;101784.19;;;9.78;85.68
79453;BME280;68899;52.116;5.404;2024-03-22T06:13:24;101785.03;;;9.79;85.72
79453;BME280;68899;52.116;5.404;2024-03-22T06:15:50;101783.25;;;9.79;85.66
79453;BME280;68899;52.116;5.404;2024-03-22T06:18:16;101776.22;;;9.80;85.67
79453;BME280;68899;52.116;5.404;2024-03-22T06:20:42;101779.72;;;9.80;85.51
79453;BME280;68899;52.116;5.404;2024-03-22T06:23:09;101788.41;;;9.82;85.95
79453;BME280;68899;52.116;5.404;2024-03-22T06:25:34;101785.63;;;9.85;85.69
79453;BME280;68899;52.116;5.404;2024-03-22T06:28:00;101788.25;;;9.85;85.54
79453;BME280;68899;52.116;5.404;2024-03-22T06:30:25;101776.91;;;9.85;85.71
79453;BME280;68899;52.116;5.404;2024-03-22T06:32:55;101777.59;;;9.88;85.67
79453;BME280;68899;52.116;5.404;2024-03-22T06:35:21;101774.97;;;9.88;85.37
79453;BME280;68899;52.116;5.404;2024-03-22T06:37:46;101776.69;;;9.89;85.52
79453;BME280;68899;52.116;5.404;2024-03-22T06:40:14;101781.81;;;9.93;85.30
79453;BME280;68899;52.116;5.404;2024-03-22T06:42:40;101779.13;;;9.94;85.30
79453;BME280;68899;52.116;5.404;2024-03-22T06:45:06;101776.34;;;9.97;85.14
79453;BME280;68899;52.116;5.404;2024-03-22T06:47:32;101774.56;;;9.98;85.18
79453;BME280;68899;52.116;5.404;2024-03-22T06:49:58;101774.56;;;9.98;85.13
79453;BME280;68899;52.116;5.404;2024-03-22T06:52:24;101780.56;;;10.01;85.03
79453;BME280;68899;52.116;5.404;2024-03-22T06:54:49;101779.56;;;10.04;85.01
79453;BME280;68899;52.116;5.404;2024-03-22T06:57:15;101780.28;;;10.07;84.95
79453;BME280;68899;52.116;5.404;2024-03-22T06:59:41;101785.50;;;10.09;84.87
79453;BME280;68899;52.116;5.404;2024-03-22T07:02:06;101782.72;;;10.12;84.98
79453;BME280;68899;52.116;5.404;2024-03-22T07:04:35;101775.59;;;10.14;84.89
79453;BME280;68899;52.116;5.404;2024-03-22T07:07:00;101775.53;;;10.15;84.51
79453;BME280;68899;52.116;5.404;2024-03-22T07:09:26;101778.16;;;10.15;84.74
79453;BME280;68899;52.116;5.404;2024-03-22T07:11:53;101784.16;;;10.19;84.51
79453;BME280;68899;52.116;5.404;2024-03-22T07:14:19;101778.81;;;10.20;84.60
79453;BME280;68899;52.116;5.404;2024-03-22T07:16:45;101777.97;;;10.20;84.50
79453;BME280;68899;52.116;5.404;2024-03-22T07:19:11;101777.88;;;10.22;84.53
79453;BME280;68899;52.116;5.404;2024-03-22T07:21:36;101778.78;;;10.22;84.33
79453;BME280;68899;52.116;5.404;2024-03-22T07:24:02;101777.03;;;10.21;84.17
79453;BME280;68899;52.116;5.404;2024-03-22T07:26:28;101779.63;;;10.23;84.23
79453;BME280;68899;52.116;5.404;2024-03-22T07:28:54;101776.91;;;10.24;84.09
79453;BME280;68899;52.116;5.404;2024-03-22T07:31:19;101781.41;;;10.22;84.19
79453;BME280;68899;52.116;5.404;2024-03-22T07:33:45;101780.47;;;10.23;84.25
79453;BME280;68899;52.116;5.404;2024-03-22T07:36:10;101784.88;;;10.23;84.05
79453;BME280;68899;52.116;5.404;2024-03-22T07:38:36;101788.47;;;10.20;83.91
79453;BME280;68899;52.116;5.404;2024-03-22T07:41:03;101783.38;;;10.17;84.03
79453;BME280;68899;52.116;5.404;2024-03-22T07:43:30;101787.81;;;10.15;84.13
79453;BME280;68899;52.116;5.404;2024-03-22T07:45:55;101775.53;;;10.15;83.85
79453;BME280;68899;52.116;5.404;2024-03-22T07:48:21;101783.41;;;10.15;84.10
79453;BME280;68899;52.116;5.404;2024-03-22T07:50:46;101768.50;;;10.16;84.05
79453;BME280;68899;52.116;5.404;2024-03-22T07:53:12;101777.25;;;10.16;83.99
79453;BME280;68899;52.116;5.404;2024-03-22T07:55:39;101773.72;;;10.17;83.88
79453;BME280;68899;52.116;5.404;2024-03-22T07:58:04;101778.13;;;10.17;83.87
79453;BME280;68899;52.116;5.404;2024-03-22T08:00:31;101779.00;;;10.16;83.96
79453;BME280;68899;52.116;5.404;2024-03-22T08:02:56;101776.38;;;10.16;83.66
79453;BME280;68899;52.116;5.404;2024-03-22T08:05:22;101771.19;;;10.14;83.67
79453;BME280;68899;52.116;5.404;2024-03-22T08:07:47;101776.44;;;10.14;83.82
79453;BME280;68899;52.116;5.404;2024-03-22T08:10:13;101773.81;;;10.14;83.82
79453;BME280;68899;52.116;5.404;2024-03-22T08:12:41;101777.31;;;10.15;83.82
79453;BME280;68899;52.116;5.404;2024-03-22T08:15:07;101772.00;;;10.16;83.97
79453;BME280;68899;52.116;5.404;2024-03-22T08:17:32;101776.25;;;10.19;84.13
79453;BME280;68899;52.116;5.404;2024-03-22T08:19:58;101781.53;;;10.19;84.16
79453;BME280;68899;52.116;5.404;2024-03-22T08:22:24;101775.47;;;10.17;84.39
79453;BME280;68899;52.116;5.404;2024-03-22T08:24:49;101777.25;;;10.16;84.84
79453;BME280;68899;52.116;5.404;2024-03-22T08:27:15;101772.19;;;10.12;84.78
79453;BME280;68899;52.116;5.404;2024-03-22T08:29:40;101767.78;;;10.12;85.43
79453;BME280;68899;52.116;5.404;2024-03-22T08:32:06;101773.19;;;10.09;85.60
79453;BME280;68899;52.116;5.404;2024-03-22T08:34:32;101770.63;;;10.08;85.77
79453;BME280;68899;52.116;5.404;2024-03-22T08:36:59;101763.59;;;10.08;86.35
79453;BME280;68899;52.116;5.404;2024-03-22T08:39:24;101772.25;;;10.10;86.53
79453;BME280;68899;52.116;5.404;2024-03-22T08:41:51;101770.56;;;10.09;86.59
79453;BME280;68899;52.116;5.404;2024-03-22T08:44:16;101769.63;;;10.10;86.91
79453;BME280;68899;52.116;5.404;2024-03-22T08:46:42;101759.13;;;10.10;86.71
79453;BME280;68899;52.116;5.404;2024-03-22T08:49:07;101760.91;;;10.10;87.08
79453;BME280;68899;52.116;5.404;2024-03-22T08:51:33;101763.53;;;10.10;87.15
79453;BME280;68899;52.116;5.404;2024-03-22T08:53:59;101766.09;;;10.11;87.28
79453;BME280;68899;52.116;5.404;2024-03-22T08:56:26;101767.78;;;10.12;87.82
79453;BME280;68899;52.116;5.404;2024-03-22T08:58:51;101767.00;;;10.10;87.64
79453;BME280;68899;52.116;5.404;2024-03-22T09:01:17;101762.59;;;10.11;87.76
79453;BME280;68899;52.116;5.404;2024-03-22T09:03:42;101762.59;;;10.11;87.75
79453;BME280;68899;52.116;5.404;2024-03-22T09:06:12;101761.81;;;10.09;87.69
79453;BME280;68899;52.116;5.404;2024-03-22T09:08:37;101767.09;;;10.09;87.97
79453;BME280;68899;52.116;5.404;2024-03-22T09:11:03;101764.44;;;10.09;88.19
79453;BME280;68899;52.116;5.404;2024-03-22T09:13:28;101763.59;;;10.08;88.17
79453;BME280;68899;52.116;5.404;2024-03-22T09:15:58;101761.88;;;10.07;88.26
79453;BME280;68899;52.116;5.404;2024-03-22T09:18:24;101755.63;;;10.10;88.68
79453;BME280;68899;52.116;5.404;2024-03-22T09:20:50;101759.03;;;10.12;88.74
79453;BME280;68899;52.116;5.404;2024-03-22T09:23:15;101762.44;;;10.14;88.93
79453;BME280;68899;52.116;5.404;2024-03-22T09:25:41;101761.59;;;10.13;88.79
79453;BME280;68899;52.116;5.404;2024-03-22T09:28:06;101760.75;;;10.13;89.07
79453;BME280;68899;52.116;5.404;2024-03-22T09:30:32;101752.88;;;10.13;89.07
79453;BME280;68899;52.116;5.404;2024-03-22T09:32:58;101756.16;;;10.18;89.31
79453;BME280;68899;52.116;5.404;2024-03-22T09:35:24;101752.59;;;10.19;89.21
79453;BME280;68899;52.116;5.404;2024-03-22T09:37:49;101753.44;;;10.19;89.31
79453;BME280;68899;52.116;5.404;2024-03-22T09:40:15;101754.28;;;10.20;89.32
79453;BME280;68899;52.116;5.404;2024-03-22T09:42:41;101754.28;;;10.20;89.51
79453;BME280;68899;52.116;5.404;2024-03-22T09:45:11;101755.22;;;10.19;89.82
79453;BME280;68899;52.116;5.404;2024-03-22T09:47:36;101756.81;;;10.23;89.82
79453;BME280;68899;52.116;5.404;2024-03-22T09:50:06;101747.13;;;10.24;89.78
79453;BME280;68899;52.116;5.404;2024-03-22T09:52:33;101749.84;;;10.22;89.98
79453;BME280;68899;52.116;5.404;2024-03-22T09:54:58;101749.66;;;10.27;90.03
79453;BME280;68899;52.116;5.404;2024-03-22T09:57:24;101751.34;;;10.28;89.93
79453;BME280;68899;52.116;5.404;2024-03-22T09:59:50;101747.78;;;10.29;89.77
79453;BME280;68899;52.116;5.404;2024-03-22T10:02:16;101745.94;;;10.31;89.96
79453;BME280;68899;52.116;5.404;2024-03-22T10:04:43;101740.06;;;10.26;89.78
79453;BME280;68899;52.116;5.404;2024-03-22T10:07:08;101742.81;;;10.23;89.72
79453;BME280;68899;52.116;5.404;2024-03-22T10:09:35;101746.16;;;10.26;89.80
79453;BME280;68899;52.116;5.404;2024-03-22T10:12:01;101743.59;;;10.25;90.24
79453;BME280;68899;52.116;5.404;2024-03-22T10:14:29;101743.53;;;10.26;90.13
79453;BME280;68899;52.116;5.404;2024-03-22T10:16:56;101739.91;;;10.29;89.87
79453;BME280;68899;52.116;5.404;2024-03-22T10:19:23;101742.53;;;10.29;90.10
79453;BME280;68899;52.116;5.404;2024-03-22T10:22:02;101748.72;;;10.28;90.09
79453;BME280;68899;52.116;5.404;2024-03-22T10:24:29;101735.56;;;10.28;90.32
79453;BME280;68899;52.116;5.404;2024-03-22T10:26:55;101725.84;;;10.30;90.15
79453;BME280;68899;52.116;5.404;2024-03-22T10:29:21;101729.16;;;10.33;90.37
79453;BME280;68899;52.116;5.404;2024-03-22T10:31:48;101731.66;;;10.36;90.11
79453;BME280;68899;52.116;5.404;2024-03-22T10:34:14;101737.78;;;10.37;90.18
79453;BME280;68899;52.116;5.404;2024-03-22T10:36:41;101732.53;;;10.37;90.31
79453;BME280;68899;52.116;5.404;2024-03-22T10:39:07;101734.28;;;10.36;90.45
79453;BME280;68899;52.116;5.404;2024-03-22T10:41:33;101728.25;;;10.34;90.69
79453;BME280;68899;52.116;5.404;2024-03-22T10:43:59;101733.53;;;10.34;90.29
79453;BME280;68899;52.116;5.404;2024-03-22T10:46:30;101733.66;;;10.31;90.08
79453;BME280;68899;52.116;5.404;2024-03-22T10:48:57;101731.00;;;10.31;90.26
79453;BME280;68899;52.116;5.404;2024-03-22T10:51:25;101734.50;;;10.32;90.16
79453;BME280;68899;52.116;5.404;2024-03-22T10:53:53;101735.31;;;10.34;90.29
79453;BME280;68899;52.116;5.404;2024-03-22T10:56:21;101737.00;;;10.35;90.45
79453;BME280;68899;52.116;5.404;2024-03-22T10:58:48;101741.25;;;10.37;90.71
79453;BME280;68899;52.116;5.404;2024-03-22T11:01:25;101736.00;;;10.37;90.48
79453;BME280;68899;52.116;5.404;2024-03-22T11:03:50;101736.84;;;10.38;90.58
79453;BME280;68899;52.116;5.404;2024-03-22T11:06:19;101733.09;;;10.43;90.80
79453;BME280;68899;52.116;5.404;2024-03-22T11:08:50;101729.38;;;10.47;90.80
79453;BME280;68899;52.116;5.404;2024-03-22T11:11:18;101719.63;;;10.50;90.41
79453;BME280;68899;52.116;5.404;2024-03-22T11:13:47;101729.22;;;10.51;90.51
79453;BME280;68899;52.116;5.404;2024-03-22T11:16:14;101720.34;;;10.53;90.82
79453;BME280;68899;52.116;5.404;2024-03-22T11:18:40;101720.13;;;10.58;90.94
79453;BME280;68899;52.116;5.404;2024-03-22T11:21:06;101716.34;;;10.63;90.61
79453;BME280;68899;52.116;5.404;2024-03-22T11:23:36;101712.63;;;10.67;90.91
79453;BME280;68899;52.116;5.404;2024-03-22T11:26:02;101708.09;;;10.71;91.04
79453;BME280;68899;52.116;5.404;2024-03-22T11:28:28;101703.53;;;10.74;90.84
79453;BME280;68899;52.116;5.404;2024-03-22T11:30:54;101700.97;;;10.73;90.84
79453;BME280;68899;52.116;5.404;2024-03-22T11:33:20;101694.69;;;10.75;90.71
79453;BME280;68899;52.116;5.404;2024-03-22T11:35:45;101698.19;;;10.76;90.77
79453;BME280;68899;52.116;5.404;2024-03-22T11:38:11;101691.94;;;10.79;90.83
79453;BME280;68899;52.116;5.404;2024-03-22T11:40:36;101701.47;;;10.81;90.78
79453;BME280;68899;52.116;5.404;2024-03-22T11:43:03;101687.66;;;10.76;90.25
79453;BME280;68899;52.116;5.404;2024-03-22T11:45:29;101686.72;;;10.77;90.28
79453;BME280;68899;52.116;5.404;2024-03-22T11:47:57;101685.94;;;10.75;90.37
79453;BME280;68899;52.116;5.404;2024-03-22T11:50:22;101682.38;;;10.76;90.75
79453;BME280;68899;52.116;5.404;2024-03-22T11:52:48;101681.25;;;10.82;90.68
79453;BME280;68899;52.116;5.404;2024-03-22T11:55:14;101687.19;;;10.85;90.94
79453;BME280;68899;52.116;5.404;2024-03-22T11:57:40;101680.09;;;10.87;90.79
79453;BME280;68899;52.116;5.404;2024-03-22T12:00:06;101676.06;;;10.80;90.31
79453;BME280;68899;52.116;5.404;2024-03-22T12:02:36;101677.00;;;10.79;90.70
79453;BME280;68899;52.116;5.404;2024-03-22T12:05:04;101673.56;;;10.77;90.74
79453;BME280;68899;52.116;5.404;2024-03-22T12:07:30;101685.09;;;10.74;90.33
79453;BME280;68899;52.116;5.404;2024-03-22T12:09:55;101668.63;;;10.71;90.54
79453;BME280;68899;52.116;5.404;2024-03-22T12:12:22;101670.25;;;10.73;90.45
79453;BME280;68899;52.116;5.404;2024-03-22T12:14:48;101671.25;;;10.71;90.54
79453;BME280;68899;52.116;5.404;2024-03-22T12:17:15;101672.22;;;10.68;90.78
79453;BME280;68899;52.116;5.404;2024-03-22T12:19:41;101678.50;;;10.66;90.47
79453;BME280;68899;52.116;5.404;2024-03-22T12:22:06;101674.09;;;10.66;90.26
79453;BME280;68899;52.116;5.404;2024-03-22T12:24:32;101677.66;;;10.65;90.09
79453;BME280;68899;52.116;5.404;2024-03-22T12:26:58;101670.91;;;10.60;89.83
79453;BME280;68899;52.116;5.404;2024-03-22T12:29:24;101668.44;;;10.57;89.72
79453;BME280;68899;52.116;5.404;2024-03-22T12:31:50;101669.28;;;10.57;89.93
79453;BME280;68899;52.116;5.404;2024-03-22T12:34:16;101664.66;;;10.62;90.66
79453;BME280;68899;52.116;5.404;2024-03-22T12:36:42;101659.69;;;10.56;89.87
79453;BME280;68899;52.116;5.404;2024-03-22T12:39:07;101661.47;;;10.56;90.03
79453;BME280;68899;52.116;5.404;2024-03-22T12:41:33;101662.59;;;10.50;89.45
79453;BME280;68899;52.116;5.404;2024-03-22T12:44:00;101650.63;;;10.44;89.67
79453;BME280;68899;52.116;5.404;2024-03-22T12:46:26;101659.28;;;10.46;89.82